Time;durP1;ratioP1;P1;durP2;ratioP2;P2;SDS_P1;SDS_P2;PMS_P1;PMS_P2;Temp;Humidity;BMP_temperature;BMP_pressure;BME280_temperature;BME280_humidity;BME280_pressure;Samples;Min_cycle;Max_cycle;Signal;HPM_P1;HPM_P2
2022/03/23 00:01:39;;;;;;;21.55;17.77;;;16.40;55.70;;;;;;5034143;28;20051;-54
2022/03/23 00:04:05;;;;;;;25.58;17.90;;;16.30;55.80;;;;;;5034074;28;20048;-53
2022/03/23 00:06:31;;;;;;;23.05;17.23;;;16.40;55.70;;;;;;5033819;28;20441;-56
2022/03/23 00:08:57;;;;;;;21.27;17.90;;;16.40;55.60;;;;;;5033928;28;20459;-54
2022/03/23 00:11:24;;;;;;;27.73;17.08;;;16.30;55.50;;;;;;5033825;28;20470;-53
2022/03/23 00:13:50;;;;;;;23.92;16.92;;;16.30;54.90;;;;;;5033992;28;20025;-54
2022/03/23 00:16:15;;;;;;;21.50;16.85;;;16.30;55.10;;;;;;5033348;28;20409;-53
2022/03/23 00:18:41;;;;;;;23.65;18.13;;;16.20;55.70;;;;;;5033601;28;20432;-52
2022/03/23 00:21:07;;;;;;;24.60;18.02;;;16.20;56.10;;;;;;5033225;28;20021;-55
2022/03/23 00:23:32;;;;;;;25.02;17.42;;;16.20;55.80;;;;;;5033434;28;20041;-59
2022/03/23 00:26:01;;;;;;;27.23;17.75;;;16.20;56.70;;;;;;5033713;28;20044;-53
2022/03/23 00:28:27;;;;;;;25.75;18.90;;;16.20;55.60;;;;;;5033442;28;20037;-59
2022/03/23 00:30:53;;;;;;;24.58;17.08;;;16.20;55.80;;;;;;5033467;28;20032;-55
2022/03/23 00:33:21;;;;;;;19.05;16.95;;;16.10;55.80;;;;;;5033260;28;20026;-57
2022/03/23 00:35:48;;;;;;;24.92;17.83;;;16.10;56.20;;;;;;5033246;28;20112;-57
2022/03/23 00:38:15;;;;;;;21.55;18.40;;;16.20;56.40;;;;;;5033291;28;20037;-57
2022/03/23 00:40:41;;;;;;;23.52;18.23;;;16.10;56.60;;;;;;5033506;28;20018;-60
2022/03/23 00:43:07;;;;;;;24.70;18.23;;;16.10;56.80;;;;;;5033327;28;20375;-63
2022/03/23 00:45:33;;;;;;;24.75;18.40;;;16.10;56.70;;;;;;5033218;28;20520;-64
2022/03/23 00:47:59;;;;;;;23.63;18.50;;;16.10;57.10;;;;;;5032983;28;20034;-57
2022/03/23 00:50:25;;;;;;;25.50;19.17;;;16.10;57.60;;;;;;5032941;28;20446;-62
2022/03/23 00:52:51;;;;;;;22.55;17.38;;;16.00;56.90;;;;;;5033074;28;20112;-67
2022/03/23 00:55:16;;;;;;;23.02;18.90;;;16.00;57.30;;;;;;5033167;28;20104;-67
2022/03/23 00:57:43;;;;;;;29.85;19.58;;;16.00;57.20;;;;;;5032968;28;20101;-67
2022/03/23 01:00:16;;;;;;;22.90;17.77;;;15.90;57.30;;;;;;5033248;28;20105;-64
2022/03/23 01:02:43;;;;;;;22.85;18.23;;;15.90;58.40;;;;;;5033034;28;20055;-57
2022/03/23 01:05:09;;;;;;;23.63;18.25;;;15.90;58.00;;;;;;5032794;28;20530;-67
2022/03/23 01:07:36;;;;;;;23.35;18.92;;;15.90;57.60;;;;;;5032969;28;20037;-68
2022/03/23 01:10:03;;;;;;;27.50;17.42;;;15.90;57.40;;;;;;5033305;28;20144;-68
2022/03/23 01:12:29;;;;;;;24.15;18.80;;;15.90;57.70;;;;;;5032836;28;20025;-66
2022/03/23 01:14:55;;;;;;;25.65;17.80;;;15.80;57.80;;;;;;5033119;28;20021;-63
2022/03/23 01:17:20;;;;;;;23.83;17.35;;;15.80;58.00;;;;;;5032786;28;20038;-54
2022/03/23 01:19:47;;;;;;;26.42;17.58;;;15.80;56.90;;;;;;5032768;28;20025;-56
2022/03/23 01:22:12;;;;;;;25.10;18.75;;;15.70;56.60;;;;;;5032811;28;20044;-54
2022/03/23 01:24:38;;;;;;;21.35;17.58;;;15.80;56.90;;;;;;5032945;28;20021;-53
2022/03/23 01:27:04;;;;;;;25.83;18.48;;;15.70;57.40;;;;;;5034072;28;20037;-52
2022/03/23 01:29:30;;;;;;;20.77;16.20;;;15.70;57.90;;;;;;5036646;28;20033;-54
2022/03/23 01:31:56;;;;;;;20.35;18.17;;;15.70;58.20;;;;;;5036745;28;20478;-53
2022/03/23 01:34:22;;;;;;;21.88;17.30;;;15.60;58.20;;;;;;5036436;28;20083;-55
2022/03/23 01:36:47;;;;;;;24.73;18.55;;;15.60;58.40;;;;;;5036852;28;20033;-55
2022/03/23 01:39:13;;;;;;;24.38;18.65;;;15.60;58.00;;;;;;5036691;28;20025;-55
2022/03/23 01:41:40;;;;;;;24.50;18.15;;;15.60;58.00;;;;;;5036760;28;20096;-53
2022/03/23 01:44:35;;;;;;;24.73;18.05;;;15.60;57.60;;;;;;5036532;28;20014;-60
2022/03/23 01:47:15;;;;;;;25.17;17.15;;;15.60;57.80;;;;;;5019592;28;20517;-58
2022/03/23 01:49:46;;;;;;;24.55;18.40;;;15.50;57.80;;;;;;5036198;28;20025;-55
2022/03/23 01:52:14;;;;;;;21.23;17.45;;;15.50;58.30;;;;;;5036593;28;20030;-58
2022/03/23 01:54:40;;;;;;;26.08;18.63;;;15.50;57.90;;;;;;5036396;28;20017;-55
2022/03/23 01:57:07;;;;;;;23.27;17.92;;;15.40;57.50;;;;;;5036280;28;20079;-52
2022/03/23 01:59:34;;;;;;;23.33;17.75;;;15.40;57.30;;;;;;5036349;28;20048;-53
2022/03/23 02:02:00;;;;;;;21.23;18.15;;;15.40;57.30;;;;;;5036553;28;20025;-53
2022/03/23 02:04:26;;;;;;;22.50;18.67;;;15.40;57.70;;;;;;5035666;28;20041;-53
2022/03/23 02:06:52;;;;;;;21.95;18.98;;;15.30;58.00;;;;;;5036220;28;20036;-53
2022/03/23 02:09:18;;;;;;;23.40;19.15;;;15.30;58.20;;;;;;5035799;28;20021;-53
2022/03/23 02:11:45;;;;;;;24.45;18.80;;;15.40;58.00;;;;;;5036362;28;20036;-55
2022/03/23 02:14:12;;;;;;;23.98;18.40;;;15.30;58.90;;;;;;5018357;28;20109;-50
2022/03/23 02:16:49;;;;;;;24.75;18.90;;;15.30;59.00;;;;;;5036095;28;20025;-52
2022/03/23 02:19:16;;;;;;;26.92;19.02;;;15.20;58.60;;;;;;5035719;28;20448;-56
2022/03/23 02:21:46;;;;;;;22.20;18.30;;;15.20;58.40;;;;;;5035996;28;20017;-54
2022/03/23 02:24:13;;;;;;;24.33;18.80;;;15.20;58.70;;;;;;5035714;28;20064;-53
2022/03/23 02:26:40;;;;;;;24.27;18.60;;;15.10;59.00;;;;;;5035746;28;20033;-54
2022/03/23 02:29:06;;;;;;;21.58;19.08;;;15.10;59.00;;;;;;5035814;28;20025;-54
2022/03/23 02:31:33;;;;;;;23.45;18.13;;;15.10;58.80;;;;;;5035822;28;20094;-55
2022/03/23 02:33:58;;;;;;;21.20;17.73;;;15.10;59.20;;;;;;5035330;28;20548;-65
2022/03/23 02:36:24;;;;;;;21.77;18.17;;;15.00;58.80;;;;;;5035686;28;20021;-61
2022/03/23 02:38:50;;;;;;;23.30;17.85;;;15.00;59.40;;;;;;5035086;28;20096;-57
2022/03/23 02:41:15;;;;;;;23.25;17.77;;;15.00;58.50;;;;;;5035859;28;20474;-67
2022/03/23 02:43:41;;;;;;;25.98;19.17;;;15.00;58.80;;;;;;5035438;28;20494;-66
2022/03/23 02:46:15;;;;;;;22.80;18.45;;;15.10;58.60;;;;;;5035292;28;20021;-64
2022/03/23 02:48:41;;;;;;;26.77;17.95;;;15.00;58.60;;;;;;5035289;28;20052;-67
2022/03/23 02:51:06;;;;;;;22.88;18.30;;;15.00;59.00;;;;;;5035138;28;20525;-68
2022/03/23 03:02:17;;;;;;;22.15;19.10;;;14.90;58.90;;;;;;5035336;28;20032;-67
2022/03/23 03:04:43;;;;;;;26.25;18.70;;;14.90;58.60;;;;;;5017309;28;20476;-65
2022/03/23 03:07:09;;;;;;;23.17;18.70;;;14.80;58.90;;;;;;5034824;28;20033;-67
2022/03/23 03:09:34;;;;;;;23.42;19.35;;;14.80;59.50;;;;;;5035054;28;20025;-67
2022/03/23 03:12:01;;;;;;;26.20;19.70;;;14.70;59.60;;;;;;5034948;28;20033;-68
2022/03/23 03:14:27;;;;;;;24.65;19.40;;;14.70;60.00;;;;;;5035214;28;20022;-54
2022/03/23 03:16:53;;;;;;;24.23;19.40;;;14.70;59.40;;;;;;5034665;28;20033;-55
2022/03/23 03:19:19;;;;;;;31.70;18.85;;;14.70;59.90;;;;;;5034862;28;20021;-53
2022/03/23 03:21:45;;;;;;;24.55;19.65;;;14.70;60.00;;;;;;5034658;28;20031;-55
2022/03/23 03:24:11;;;;;;;25.52;19.27;;;14.70;59.80;;;;;;5034917;28;20378;-53
2022/03/23 03:26:36;;;;;;;28.73;19.27;;;14.60;60.00;;;;;;5034579;28;20029;-54
2022/03/23 03:29:04;;;;;;;29.63;20.75;;;14.60;60.30;;;;;;5034606;28;20375;-53
2022/03/23 03:31:30;;;;;;;29.75;21.02;;;14.60;59.80;;;;;;5034314;28;20041;-54
2022/03/23 03:33:56;;;;;;;30.20;20.70;;;14.60;59.70;;;;;;5034467;28;20374;-59
2022/03/23 03:36:22;;;;;;;27.15;21.13;;;14.60;59.60;;;;;;5034369;28;20471;-54
2022/03/23 03:38:49;;;;;;;31.23;21.63;;;14.60;59.90;;;;;;5034417;28;20140;-51
2022/03/23 03:41:14;;;;;;;28.00;20.98;;;14.50;59.80;;;;;;5034363;28;20100;-55
2022/03/23 03:43:40;;;;;;;27.08;20.55;;;14.50;60.50;;;;;;5034485;28;20108;-53
2022/03/23 03:46:10;;;;;;;27.33;20.45;;;14.50;60.60;;;;;;5033977;28;20481;-54
2022/03/23 03:48:36;;;;;;;26.02;20.40;;;14.50;60.00;;;;;;5034338;28;20052;-53
2022/03/23 03:51:06;;;;;;;25.70;19.98;;;14.50;60.40;;;;;;5033853;28;20021;-51
2022/03/23 03:53:31;;;;;;;31.50;20.10;;;14.40;60.60;;;;;;5034142;28;20025;-60
2022/03/23 03:55:57;;;;;;;26.25;21.30;;;14.40;60.80;;;;;;5033970;28;20352;-56
2022/03/23 03:58:23;;;;;;;28.17;21.23;;;14.40;60.50;;;;;;5034233;28;20037;-55
2022/03/23 04:00:49;;;;;;;28.10;19.77;;;14.40;60.60;;;;;;5033696;28;20127;-63
2022/03/23 04:03:15;;;;;;;27.45;20.05;;;14.40;60.00;;;;;;5034173;28;20026;-66
2022/03/23 04:05:41;;;;;;;25.60;21.38;;;14.30;60.00;;;;;;5033856;28;20025;-63
2022/03/23 04:08:07;;;;;;;25.02;19.80;;;14.30;60.00;;;;;;5033664;28;20033;-66
2022/03/23 04:10:33;;;;;;;26.80;20.27;;;14.30;60.10;;;;;;5034031;28;20078;-61
2022/03/23 04:12:59;;;;;;;28.48;20.33;;;14.30;59.90;;;;;;5016188;28;20029;-61
2022/03/23 04:15:26;;;;;;;27.02;21.13;;;14.30;60.10;;;;;;5033662;28;20025;-64
2022/03/23 04:17:54;;;;;;;29.05;20.00;;;14.20;59.80;;;;;;5015868;28;20107;-63
2022/03/23 04:20:19;;;;;;;30.95;21.20;;;14.20;59.70;;;;;;5033692;28;20030;-57
2022/03/23 04:22:45;;;;;;;30.00;21.63;;;14.20;59.70;;;;;;5033532;28;20032;-64
2022/03/23 04:25:12;;;;;;;28.92;22.15;;;14.20;59.80;;;;;;5033769;28;20044;-61
2022/03/23 04:27:49;;;;;;;28.73;20.98;;;14.10;60.40;;;;;;5027600;28;20030;-63
2022/03/23 04:30:19;;;;;;;29.38;21.00;;;14.20;60.70;;;;;;5033479;28;20105;-63
2022/03/23 04:32:46;;;;;;;30.35;21.35;;;14.10;60.20;;;;;;5032233;28;20495;-64
2022/03/23 04:35:12;;;;;;;37.35;22.55;;;14.10;60.70;;;;;;5033326;28;20028;-65
2022/03/23 04:37:39;;;;;;;27.65;21.25;;;14.10;60.30;;;;;;5033397;28;20072;-62
2022/03/23 04:40:06;;;;;;;56.55;27.20;;;14.10;60.90;;;;;;5033687;28;20033;-62
2022/03/23 04:42:32;;;;;;;33.63;22.10;;;14.00;61.60;;;;;;5032957;28;20028;-67
2022/03/23 04:44:58;;;;;;;31.52;22.25;;;14.10;61.50;;;;;;5032776;28;20065;-62
2022/03/23 04:47:24;;;;;;;31.63;22.13;;;14.00;61.50;;;;;;5028776;28;20546;-65
2022/03/23 04:49:49;;;;;;;29.27;21.85;;;13.90;61.40;;;;;;5020811;28;20025;-65
2022/03/23 04:52:16;;;;;;;27.30;21.73;;;14.00;61.30;;;;;;5005482;28;20109;-64
2022/03/23 04:54:43;;;;;;;28.00;22.33;;;13.90;61.40;;;;;;5013221;28;20097;-67
2022/03/23 04:57:08;;;;;;;28.63;22.20;;;14.00;61.60;;;;;;5029331;28;20084;-57
2022/03/23 04:59:34;;;;;;;30.45;21.52;;;13.90;61.70;;;;;;5033225;28;20021;-61
2022/03/23 05:02:00;;;;;;;31.80;21.48;;;13.80;61.70;;;;;;5032675;28;20033;-52
2022/03/23 05:04:25;;;;;;;33.92;22.30;;;13.80;61.30;;;;;;5031958;28;20466;-57
2022/03/23 05:06:51;;;;;;;29.98;21.30;;;13.80;61.40;;;;;;5032834;28;20470;-57
2022/03/23 05:09:16;;;;;;;34.35;22.40;;;13.80;61.10;;;;;;5032646;28;20363;-67
2022/03/23 05:11:42;;;;;;;26.40;21.42;;;13.80;61.50;;;;;;5031963;28;20546;-54
2022/03/23 05:14:07;;;;;;;29.95;22.13;;;13.70;61.70;;;;;;5032787;28;20482;-54
2022/03/23 05:16:33;;;;;;;30.92;21.30;;;13.70;61.90;;;;;;5032113;28;20025;-53
2022/03/23 05:18:59;;;;;;;26.23;21.50;;;13.70;61.60;;;;;;5014638;28;20025;-54
2022/03/23 05:21:25;;;;;;;27.30;21.02;;;13.60;61.60;;;;;;5031192;28;20032;-53
2022/03/23 05:23:50;;;;;;;26.02;20.08;;;13.60;61.90;;;;;;5031105;28;20486;-49
2022/03/23 05:26:16;;;;;;;27.02;20.80;;;13.60;62.20;;;;;;5032151;28;20033;-52
2022/03/23 05:28:41;;;;;;;28.05;21.70;;;13.60;62.50;;;;;;5024143;28;20025;-52
2022/03/23 05:31:07;;;;;;;30.55;22.90;;;13.60;62.10;;;;;;5020700;28;20156;-52
2022/03/23 05:33:32;;;;;;;28.70;22.27;;;13.60;61.80;;;;;;5032038;28;20029;-52
2022/03/23 05:35:58;;;;;;;34.00;21.83;;;13.50;62.10;;;;;;5031952;28;20108;-53
2022/03/23 05:38:24;;;;;;;30.08;23.83;;;13.50;61.90;;;;;;5032220;28;20025;-62
2022/03/23 05:40:49;;;;;;;27.40;23.00;;;13.50;61.90;;;;;;5014842;28;20041;-64
2022/03/23 05:43:15;;;;;;;31.20;23.92;;;13.50;61.80;;;;;;5011649;28;20029;-53
2022/03/23 05:45:40;;;;;;;30.38;23.77;;;13.40;62.00;;;;;;5012471;28;20494;-60
2022/03/23 05:48:06;;;;;;;35.55;25.65;;;13.40;61.90;;;;;;5012661;28;20109;-59
2022/03/23 05:50:33;;;;;;;37.42;26.60;;;13.40;61.70;;;;;;5012828;28;20345;-56
2022/03/23 05:52:58;;;;;;;35.90;25.92;;;13.40;62.10;;;;;;4995316;28;20380;-56
2022/03/23 05:55:24;;;;;;;36.40;28.65;;;13.40;62.30;;;;;;5012846;28;20082;-55
2022/03/23 05:57:50;;;;;;;36.30;28.83;;;13.30;62.20;;;;;;5012946;28;20490;-58
2022/03/23 06:00:16;;;;;;;34.40;28.13;;;13.30;62.30;;;;;;5012816;28;20172;-57
2022/03/23 06:02:41;;;;;;;35.03;26.30;;;13.30;62.30;;;;;;5028524;28;20025;-50
2022/03/23 06:05:08;;;;;;;36.08;28.90;;;13.30;62.70;;;;;;5031425;28;20528;-53
2022/03/23 06:07:34;;;;;;;36.35;27.58;;;13.20;62.70;;;;;;5031428;28;20479;-56
2022/03/23 06:10:01;;;;;;;33.85;26.65;;;13.30;62.50;;;;;;5031998;28;20029;-54
2022/03/23 06:12:27;;;;;;;37.75;28.40;;;13.30;62.80;;;;;;5032402;28;20479;-57
2022/03/23 06:14:52;;;;;;;36.30;28.25;;;13.30;62.60;;;;;;5035546;28;20104;-62
2022/03/23 06:17:18;;;;;;;40.05;29.42;;;13.30;62.80;;;;;;5034440;28;20455;-54
2022/03/23 06:19:43;;;;;;;35.72;28.40;;;13.30;62.90;;;;;;5035400;28;20025;-54
2022/03/23 06:22:09;;;;;;;37.17;26.00;;;13.30;62.80;;;;;;5035680;28;20026;-50
2022/03/23 06:24:34;;;;;;;41.92;28.63;;;13.20;63.20;;;;;;5034806;28;20490;-54
2022/03/23 06:27:00;;;;;;;37.63;27.30;;;13.20;63.50;;;;;;5035552;28;20379;-55
2022/03/23 06:29:26;;;;;;;40.13;28.60;;;13.20;63.30;;;;;;5035622;28;20526;-56
2022/03/23 06:31:52;;;;;;;36.05;28.40;;;13.20;63.90;;;;;;5035667;28;20103;-58
2022/03/23 06:34:17;;;;;;;35.95;28.42;;;13.30;63.90;;;;;;5028872;28;20100;-52
2022/03/23 06:36:43;;;;;;;47.45;26.77;;;13.30;64.50;;;;;;5025650;28;20569;-53
2022/03/23 06:39:08;;;;;;;40.83;28.55;;;13.30;63.90;;;;;;5017653;28;20552;-49
2022/03/23 06:41:34;;;;;;;42.10;27.52;;;13.40;63.70;;;;;;5034488;28;20030;-65
2022/03/23 06:44:00;;;;;;;37.22;28.52;;;13.40;64.40;;;;;;5030718;28;20052;-53
2022/03/23 06:46:25;;;;;;;42.47;24.15;;;13.30;65.40;;;;;;5029351;28;20033;-65
2022/03/23 06:48:51;;;;;;;39.45;27.95;;;13.40;65.40;;;;;;5029592;28;20029;-66
2022/03/23 06:51:18;;;;;;;43.80;29.00;;;13.50;63.60;;;;;;5029497;28;20390;-66
2022/03/23 06:53:43;;;;;;;47.50;27.95;;;13.50;62.90;;;;;;5029067;28;20041;-59
2022/03/23 06:56:09;;;;;;;44.35;28.70;;;13.50;62.10;;;;;;5020094;28;20021;-54
2022/03/23 06:58:35;;;;;;;41.60;28.67;;;13.50;61.50;;;;;;5023023;28;20405;-58
2022/03/23 07:01:01;;;;;;;38.30;28.60;;;13.50;60.90;;;;;;5031824;28;20029;-65
2022/03/23 07:03:27;;;;;;;41.55;28.85;;;13.50;60.80;;;;;;5032932;28;20037;-65
2022/03/23 07:05:53;;;;;;;33.35;25.70;;;13.60;60.90;;;;;;5032447;28;20021;-54
2022/03/23 07:11:04;;;;;;;37.50;27.52;;;13.60;61.30;;;;;;5028420;28;20136;-52
2022/03/23 07:13:30;;;;;;;37.25;28.40;;;13.70;60.30;;;;;;5018195;28;20463;-53
2022/03/23 07:15:55;;;;;;;44.35;29.63;;;13.70;60.20;;;;;;5013466;28;20024;-55
2022/03/23 07:18:21;;;;;;;42.95;29.88;;;13.70;60.20;;;;;;5031193;28;20052;-54
2022/03/23 07:20:46;;;;;;;45.67;30.67;;;13.80;60.30;;;;;;5027403;28;20056;-53
2022/03/23 07:23:12;;;;;;;34.35;28.33;;;13.80;60.10;;;;;;5033930;28;20113;-51
2022/03/23 07:25:37;;;;;;;39.97;30.42;;;13.80;60.90;;;;;;5033558;28;20121;-53
2022/03/23 07:28:03;;;;;;;36.53;27.83;;;13.80;60.30;;;;;;5024603;28;20046;-53
2022/03/23 07:30:30;;;;;;;43.80;28.48;;;13.80;60.60;;;;;;5032691;28;20033;-51
2022/03/23 07:32:56;;;;;;;40.88;29.33;;;13.90;60.60;;;;;;5032829;28;20104;-55
2022/03/23 07:35:22;;;;;;;37.42;28.00;;;13.90;60.40;;;;;;5027370;28;20065;-53
2022/03/23 07:37:48;;;;;;;42.45;28.00;;;14.00;60.40;;;;;;5027984;28;20033;-53
2022/03/23 07:40:14;;;;;;;70.18;30.17;;;14.00;60.20;;;;;;5033474;28;20056;-50
2022/03/23 07:42:39;;;;;;;57.35;31.35;;;14.10;59.60;;;;;;5034240;28;20466;-53
2022/03/23 07:45:06;;;;;;;46.40;28.42;;;14.10;59.50;;;;;;5028659;28;20060;-50
2022/03/23 07:47:32;;;;;;;48.33;28.48;;;14.10;60.40;;;;;;5032907;28;20044;-48
2022/03/23 07:49:57;;;;;;;59.38;29.25;;;14.20;59.60;;;;;;5033388;28;20025;-54
2022/03/23 07:52:23;;;;;;;43.45;28.40;;;14.20;59.30;;;;;;5032707;28;20033;-54
2022/03/23 07:54:49;;;;;;;44.40;28.25;;;14.20;59.20;;;;;;5027096;28;20018;-47
2022/03/23 07:57:15;;;;;;;40.05;24.05;;;14.30;59.10;;;;;;5023884;28;20115;-51
2022/03/23 07:59:41;;;;;;;37.00;26.55;;;14.30;59.40;;;;;;5034382;28;20020;-57
2022/03/23 08:02:07;;;;;;;40.80;26.38;;;14.30;59.60;;;;;;5028460;28;20033;-55
2022/03/23 08:04:32;;;;;;;34.28;26.88;;;14.40;59.30;;;;;;5031237;28;20531;-55
2022/03/23 08:07:00;;;;;;;37.88;27.58;;;14.40;59.30;;;;;;5027565;28;20502;-55
2022/03/23 08:09:26;;;;;;;43.90;27.75;;;14.40;59.00;;;;;;5027821;28;20482;-53
2022/03/23 08:11:51;;;;;;;77.55;32.33;;;14.50;59.10;;;;;;5032075;28;20064;-52
2022/03/23 08:14:17;;;;;;;55.08;28.00;;;14.50;59.50;;;;;;5031091;28;20471;-54
2022/03/23 08:16:43;;;;;;;49.30;26.95;;;14.50;59.70;;;;;;5031819;28;20536;-54
2022/03/23 08:19:08;;;;;;;39.95;27.08;;;14.50;59.70;;;;;;5032577;28;20021;-53
2022/03/23 08:21:34;;;;;;;38.83;26.05;;;14.60;59.80;;;;;;5032152;28;20398;-53
2022/03/23 08:24:00;;;;;;;46.30;28.55;;;14.60;59.90;;;;;;5031666;28;20040;-56
2022/03/23 08:26:26;;;;;;;42.28;28.05;;;14.60;59.60;;;;;;5030929;28;20481;-53
2022/03/23 08:28:52;;;;;;;48.78;28.40;;;14.60;59.40;;;;;;5013319;28;20049;-54
2022/03/23 08:31:18;;;;;;;35.10;25.58;;;14.70;59.40;;;;;;5014642;28;20429;-57
2022/03/23 08:33:44;;;;;;;36.83;25.70;;;14.70;58.90;;;;;;5030255;28;20029;-63
2022/03/23 08:36:10;;;;;;;39.03;24.58;;;14.70;58.80;;;;;;5032101;28;20037;-62
2022/03/23 08:38:36;;;;;;;33.85;23.85;;;14.70;59.00;;;;;;5031848;28;20433;-60
2022/03/23 08:41:03;;;;;;;36.55;26.70;;;14.80;59.10;;;;;;5028092;28;20028;-55
2022/03/23 08:43:29;;;;;;;33.83;28.58;;;14.80;59.30;;;;;;5031087;28;20033;-56
2022/03/23 08:45:55;;;;;;;31.92;27.35;;;14.80;59.10;;;;;;5027145;28;20022;-53
2022/03/23 08:48:20;;;;;;;37.67;26.15;;;14.80;58.30;;;;;;5020688;28;20072;-59
2022/03/23 08:50:48;;;;;;;37.17;26.05;;;14.80;58.30;;;;;;5030347;28;20045;-53
2022/03/23 08:53:14;;;;;;;38.10;27.27;;;14.80;58.40;;;;;;5031607;28;20033;-55
2022/03/23 08:55:40;;;;;;;37.55;25.92;;;14.90;58.50;;;;;;5026814;28;20076;-57
2022/03/23 08:58:06;;;;;;;36.05;27.02;;;14.90;58.00;;;;;;5012805;28;20025;-66
2022/03/23 09:00:33;;;;;;;38.42;26.27;;;14.90;58.00;;;;;;5017143;28;20026;-54
2022/03/23 09:02:59;;;;;;;38.45;28.00;;;15.00;58.40;;;;;;5013412;28;20092;-54
2022/03/23 09:05:24;;;;;;;36.63;25.48;;;15.00;58.20;;;;;;5029647;28;20025;-55
2022/03/23 09:07:50;;;;;;;35.90;28.92;;;15.00;58.50;;;;;;5029689;28;20462;-54
2022/03/23 09:10:18;;;;;;;35.30;27.75;;;15.00;58.20;;;;;;5029825;28;20097;-58
2022/03/23 09:12:44;;;;;;;37.22;27.27;;;15.00;57.60;;;;;;5024750;28;20808;-54
2022/03/23 09:15:12;;;;;;;34.40;26.95;;;15.10;57.60;;;;;;5027250;28;20029;-54
2022/03/23 09:17:38;;;;;;;32.80;25.98;;;15.00;58.00;;;;;;5013610;28;20033;-60
2022/03/23 09:20:05;;;;;;;29.98;20.08;;;15.10;58.30;;;;;;5017853;28;20034;-52
2022/03/23 09:22:34;;;;;;;38.05;27.58;;;15.10;59.80;;;;;;5026490;28;20029;-53
2022/03/23 09:25:01;;;;;;;34.67;26.08;;;15.10;58.40;;;;;;5024575;28;20026;-53
2022/03/23 09:27:27;;;;;;;31.38;23.90;;;15.10;58.40;;;;;;5025064;28;20045;-52
2022/03/23 09:29:52;;;;;;;31.08;25.23;;;15.20;59.50;;;;;;5032093;28;20029;-50
2022/03/23 09:32:18;;;;;;;34.42;21.70;;;15.20;59.20;;;;;;5026143;28;20049;-53
2022/03/23 09:34:45;;;;;;;36.58;26.17;;;15.20;59.90;;;;;;5018116;28;20104;-58
2022/03/23 09:39:55;;;;;;;29.50;21.55;;;15.20;59.70;;;;;;5030858;28;20164;-57
2022/03/23 09:42:22;;;;;;;26.90;19.00;;;15.20;60.60;;;;;;5032639;28;20057;-57
2022/03/23 09:44:48;;;;;;;30.10;23.42;;;15.30;60.90;;;;;;5031612;28;20053;-51
2022/03/23 09:47:14;;;;;;;28.83;23.83;;;15.30;59.00;;;;;;5031014;28;20037;-52
2022/03/23 09:49:41;;;;;;;38.58;27.67;;;15.30;59.90;;;;;;5035125;28;20025;-57
2022/03/23 09:52:06;;;;;;;35.17;25.98;;;15.30;57.80;;;;;;5035400;28;20037;-53
2022/03/23 09:54:32;;;;;;;32.38;26.63;;;15.30;58.10;;;;;;5030799;28;20030;-57
2022/03/23 09:56:58;;;;;;;30.45;25.80;;;15.40;57.70;;;;;;5023911;28;20030;-66
2022/03/23 09:59:23;;;;;;;32.63;24.48;;;15.40;57.20;;;;;;5034347;28;20052;-61
2022/03/23 10:02:33;;;;;;;24.05;19.20;;;15.40;58.00;;;;;;5033143;28;20026;-57
2022/03/23 10:05:22;;;;;;;21.50;18.40;;;15.40;59.90;;;;;;5033700;28;20041;-66
2022/03/23 10:08:25;;;;;;;31.80;24.65;;;15.40;59.90;;;;;;5025522;28;20085;-54
2022/03/23 10:10:53;;;;;;;;;;;15.40;58.70;;;;;;5034564;28;20025;-54
2022/03/23 10:13:58;;;;;;;33.50;25.55;;;15.40;58.60;;;;;;5028063;28;19967;-53
2022/03/23 10:16:57;;;;;;;31.85;25.83;;;15.40;57.80;;;;;;5029834;28;20538;-59
2022/03/23 10:19:23;;;;;;;35.63;24.13;;;15.50;57.30;;;;;;5013874;28;20037;-59
2022/03/23 10:21:49;;;;;;;31.60;22.50;;;15.40;57.80;;;;;;5034110;28;20022;-55
2022/03/23 10:24:15;;;;;;;33.10;24.83;;;15.50;57.70;;;;;;5025765;28;20032;-60
2022/03/23 10:26:42;;;;;;;29.90;26.00;;;15.50;57.00;;;;;;5015934;28;20026;-67
2022/03/23 10:29:23;;;;;;;33.83;24.27;;;15.50;56.20;;;;;;5033763;28;20051;-58
2022/03/23 10:32:08;;;;;;;29.33;23.10;;;15.60;56.60;;;;;;5032296;28;20120;-64
2022/03/23 10:34:38;;;;;;;34.65;22.85;;;15.60;57.10;;;;;;5033180;28;20386;-68
2022/03/23 10:37:04;;;;;;;28.25;23.85;;;15.60;57.30;;;;;;5032290;28;20398;-55
2022/03/23 10:39:31;;;;;;;24.17;20.02;;;15.60;55.50;;;;;;5034691;28;20014;-66
2022/03/23 10:42:08;;;;;;;17.17;14.70;;;15.60;56.90;;;;;;5030081;28;20029;-66
2022/03/23 10:44:33;;;;;;;16.55;13.45;;;15.60;60.10;;;;;;5034186;28;20022;-67
2022/03/23 10:46:59;;;;;;;17.85;12.40;;;15.70;61.30;;;;;;5033637;28;20041;-65
2022/03/23 10:49:51;;;;;;;22.90;17.95;;;15.80;61.20;;;;;;5034200;28;20029;-64
2022/03/23 10:52:18;;;;;;;19.60;14.00;;;15.90;60.10;;;;;;5031230;28;20041;-66
2022/03/23 10:54:58;;;;;;;16.77;12.40;;;15.90;60.20;;;;;;5025655;28;20014;-65
2022/03/23 10:58:06;;;;;;;15.02;11.45;;;15.90;60.60;;;;;;5011429;28;20490;-65
2022/03/23 11:00:32;;;;;;;17.88;12.50;;;16.00;60.90;;;;;;4994436;28;20095;-66
2022/03/23 11:03:00;;;;;;;13.10;10.23;;;16.00;60.80;;;;;;5031856;28;20034;-62
2022/03/23 11:05:31;;;;;;;13.07;11.55;;;16.00;61.30;;;;;;5022614;28;20026;-58
2022/03/23 11:08:08;;;;;;;15.35;11.90;;;16.00;61.30;;;;;;5023460;28;20056;-60
2022/03/23 11:16:21;;;;;;;27.40;19.80;;;16.10;57.10;;;;;;5028881;28;20111;-57
2022/03/23 11:19:18;;;;;;;27.35;19.92;;;16.10;56.80;;;;;;5031634;28;20021;-56
2022/03/23 11:22:09;;;;;;;26.38;21.17;;;16.10;57.70;;;;;;4996037;28;20053;-58
2022/03/23 11:24:40;;;;;;;19.55;14.68;;;16.10;56.90;;;;;;5022173;28;20033;-60
2022/03/23 11:27:08;;;;;;;38.43;20.53;;;16.10;60.90;;;;;;5026942;28;20120;-61
2022/03/23 11:29:36;;;;;;;31.80;23.77;;;16.10;58.80;;;;;;5031124;28;20358;-60
2022/03/23 11:32:06;;;;;;;22.27;18.40;;;16.20;55.90;;;;;;5029465;28;20025;-55
2022/03/23 11:34:36;;;;;;;20.92;14.60;;;16.20;59.60;;;;;;5031243;28;20108;-66
2022/03/23 11:37:03;;;;;;;21.45;15.32;;;16.20;62.90;;;;;;5028264;28;20022;-58
2022/03/23 11:39:30;;;;;;;23.05;15.45;;;16.20;64.10;;;;;;5031534;28;20104;-56
2022/03/23 11:41:58;;;;;;;22.23;15.63;;;16.30;64.50;;;;;;5033515;28;20116;-59
2022/03/23 11:44:25;;;;;;;25.42;17.45;;;16.30;64.60;;;;;;5031205;28;20509;-56
2022/03/23 11:46:56;;;;;;;22.88;14.50;;;16.30;64.00;;;;;;5031959;28;20022;-54
2022/03/23 11:49:49;;;;;;;19.60;14.00;;;16.30;65.30;;;;;;5026254;28;20029;-62
2022/03/23 11:52:30;;;;;;;22.13;15.25;;;16.40;65.50;;;;;;5013996;28;20466;-61
2022/03/23 11:58:00;;;;;;;26.52;19.05;;;16.40;63.50;;;;;;5030630;28;20048;-58
2022/03/23 12:00:27;;;;;;;26.00;18.88;;;16.30;62.10;;;;;;5027780;28;20033;-57
2022/03/23 12:02:57;;;;;;;21.63;17.15;;;16.40;61.90;;;;;;5024819;28;20018;-58
2022/03/23 12:05:30;;;;;;;26.30;16.90;;;16.40;62.10;;;;;;5026456;28;20030;-59
2022/03/23 12:07:56;;;;;;;22.55;19.52;;;16.40;62.20;;;;;;5026746;28;20504;-59
2022/03/23 12:10:31;;;;;;;27.65;21.10;;;16.50;59.80;;;;;;5030140;28;20025;-58
2022/03/23 12:13:17;;;;;;;21.70;16.17;;;16.50;58.10;;;;;;5029749;28;20021;-55
2022/03/23 12:16:09;;;;;;;26.17;19.52;;;16.50;61.80;;;;;;5027320;28;20041;-56
2022/03/23 12:18:58;;;;;;;31.30;17.42;;;16.50;59.50;;;;;;5025162;28;20048;-59
2022/03/23 12:21:31;;;;;;;26.02;17.80;;;16.50;61.40;;;;;;5030333;28;20013;-68
2022/03/23 12:24:13;;;;;;;31.10;18.65;;;16.50;61.10;;;;;;5025179;28;20033;-66
2022/03/23 12:26:46;;;;;;;28.73;19.73;;;16.60;60.30;;;;;;5019994;28;20033;-66
2022/03/23 12:29:15;;;;;;;29.98;19.52;;;16.60;59.50;;;;;;5022079;28;20037;-63
2022/03/23 12:31:41;;;;;;;32.00;18.63;;;16.60;58.80;;;;;;5023459;28;20034;-64
2022/03/23 12:34:25;;;;;;;25.30;17.70;;;16.70;58.30;;;;;;5029198;28;20025;-68
2022/03/23 12:37:01;;;;;;;27.88;19.27;;;16.80;57.50;;;;;;5020468;28;20037;-67
2022/03/23 12:39:36;;;;;;;25.65;18.23;;;16.70;55.90;;;;;;5031290;28;20028;-68
2022/03/23 12:42:15;;;;;;;25.63;17.80;;;16.80;56.40;;;;;;5018731;28;20026;-63
2022/03/23 12:44:46;;;;;;;22.73;16.73;;;16.80;57.00;;;;;;5029688;28;20079;-68
2022/03/23 12:47:27;;;;;;;23.52;16.30;;;16.80;57.00;;;;;;5031399;28;20026;-66
2022/03/23 12:58:25;;;;;;;24.13;14.27;;;16.90;56.60;;;;;;5024391;28;20044;-68
2022/03/23 13:00:54;;;;;;;19.23;13.68;;;17.00;57.80;;;;;;5024371;28;20036;-67
2022/03/23 13:03:20;;;;;;;18.65;13.13;;;16.90;58.00;;;;;;5026666;28;20014;-57
2022/03/23 13:05:57;;;;;;;19.73;13.45;;;17.00;58.30;;;;;;5029550;28;20033;-59